Weather at Supadio Airport

Public forecast

Using degrees Celsius for public forecast. Weather courtesy of forecast.io.

Current aviation weather report (METAR) for Supadio Airport

Report is more than 6 hours old.

Retrieved 2021/04/12 10:00 UTC (6 hours ago):

WIOO 121000Z 19006KT 9999 FEW011CB SCT012 30/25 Q1009 NOSIG

Aviation forecast (TAF) for Supadio Airport

Forecast is more than 12 hours old.

Retrieved 2014/03/26 00:51 UTC (7 years ago):

TAF TAF WIOO 252300Z 2600/2624 10002KT 7000 SCT011 BECMG 2601/2603 08005KT 9999 TEMPO 2607/2610 15010KT 3000